New Orleans, Louisiana
Traffic Map
Current Weather Conditions
New Orleans, Louisiana
Clear
Clear
30°
Feels Like: 31°
Wind Chill: 30° Ceiling: Unl
Heat Index: 31° Visibility: 10mi
Dew Point: 19° Wind: 7mph
Humidity: 51% Direction: 50° (NE)
Pressure: 29.96in Gusts: 0mph
Raw Report DataKVSH 201955Z AUTO 05006KT 10SM CLR 30/19 A2996 RMK AO1
Traffic Incident Summary
Active as of:
Severity:
Category:
InformationThere was an issue retrieving the traffic information for this location. Please try a different location or try again shortly.
Advertisements
Track Severe Weather on mobile